Time;durP1;ratioP1;P1;durP2;ratioP2;P2;SDS_P1;SDS_P2;PMS_P1;PMS_P2;Temp;Humidity;BMP_temperature;BMP_pressure;BME280_temperature;BME280_humidity;BME280_pressure;Samples;Min_cycle;Max_cycle;Signal;HPM_P1;HPM_P2
2022/02/22 00:02:20;;;;;;;39.85;5.80;;;;;;;;;;5029055;28;20470;-70
2022/02/22 00:04:46;;;;;;;40.70;6.97;;;;;;;;;;5030562;28;20020;-70
2022/02/22 00:07:12;;;;;;;47.72;6.28;;;;;;;;;;5030159;28;20048;-70
2022/02/22 00:09:38;;;;;;;48.67;7.00;;;;;;;;;;5030435;28;20465;-70
2022/02/22 00:12:03;;;;;;;49.50;8.10;;;;;;;;;;5030492;28;20138;-71
2022/02/22 00:14:28;;;;;;;53.00;6.53;;;;;;;;;;5027889;28;20024;-71
2022/02/22 00:16:55;;;;;;;35.28;5.78;;;;;;;;;;5031486;28;20072;-71
2022/02/22 00:19:24;;;;;;;42.00;5.90;;;;;;;;;;5030399;28;20025;-70
2022/02/22 00:21:50;;;;;;;54.85;6.72;;;;;;;;;;5029648;28;20078;-71
2022/02/22 00:24:16;;;;;;;40.90;5.28;;;;;;;;;;5029964;28;20525;-71
2022/02/22 00:26:41;;;;;;;43.50;5.72;;;;;;;;;;5030181;28;20444;-71
2022/02/22 00:29:06;;;;;;;47.20;6.65;;;;;;;;;;5029812;28;20463;-70
2022/02/22 00:31:31;;;;;;;43.22;7.60;;;;;;;;;;5029903;28;20034;-70
2022/02/22 00:33:57;;;;;;;48.28;7.35;;;;;;;;;;5030255;28;20033;-72
2022/02/22 00:36:22;;;;;;;49.08;7.15;;;;;;;;;;5030475;28;20021;-70
2022/02/22 00:38:49;;;;;;;43.22;5.55;;;;;;;;;;5029599;28;20028;-70
2022/02/22 00:41:15;;;;;;;42.55;6.20;;;;;;;;;;5029997;28;20045;-70
2022/02/22 00:43:40;;;;;;;56.25;10.25;;;;;;;;;;5029514;28;20060;-71
2022/02/22 00:46:05;;;;;;;43.42;5.22;;;;;;;;;;5027811;28;20552;-69
2022/02/22 00:48:30;;;;;;;45.13;6.85;;;;;;;;;;5029925;28;20041;-71
2022/02/22 00:50:55;;;;;;;43.63;6.88;;;;;;;;;;5030520;28;20108;-70
2022/02/22 00:53:22;;;;;;;55.45;8.25;;;;;;;;;;5030373;28;20486;-70
2022/02/22 00:55:47;;;;;;;50.97;6.90;;;;;;;;;;5028913;28;20502;-70
2022/02/22 00:58:12;;;;;;;44.92;7.22;;;;;;;;;;5029586;28;20096;-70
2022/02/22 01:00:37;;;;;;;45.00;6.70;;;;;;;;;;5030160;28;20026;-70
2022/02/22 01:03:02;;;;;;;62.70;8.70;;;;;;;;;;5029845;28;20017;-70
2022/02/22 01:05:28;;;;;;;50.22;6.13;;;;;;;;;;5030259;28;20071;-70
2022/02/22 01:07:53;;;;;;;39.28;6.85;;;;;;;;;;5029722;28;20075;-70
2022/02/22 01:10:18;;;;;;;60.53;8.68;;;;;;;;;;5027454;28;20026;-70
2022/02/22 01:12:43;;;;;;;40.08;5.45;;;;;;;;;;5030401;28;20389;-70
2022/02/22 01:15:09;;;;;;;56.10;6.90;;;;;;;;;;5033438;28;20033;-70
2022/02/22 01:17:34;;;;;;;42.28;5.45;;;;;;;;;;5033496;28;20017;-69
2022/02/22 01:19:59;;;;;;;50.22;6.65;;;;;;;;;;5032439;28;20037;-69
2022/02/22 01:22:24;;;;;;;41.78;5.68;;;;;;;;;;5034416;28;20605;-70
2022/02/22 01:24:50;;;;;;;45.72;7.03;;;;;;;;;;5033329;28;20041;-70
2022/02/22 01:27:15;;;;;;;48.87;6.53;;;;;;;;;;5033363;28;20021;-70
2022/02/22 01:29:40;;;;;;;41.15;6.50;;;;;;;;;;5034021;28;20264;-69
2022/02/22 01:32:05;;;;;;;47.75;7.05;;;;;;;;;;5033972;28;20034;-69
2022/02/22 01:34:31;;;;;;;37.78;5.22;;;;;;;;;;5029423;28;20029;-69
2022/02/22 01:36:56;;;;;;;51.85;5.70;;;;;;;;;;5034038;28;20067;-69
2022/02/22 01:39:21;;;;;;;56.43;5.97;;;;;;;;;;5033568;28;20377;-71
2022/02/22 01:41:46;;;;;;;47.13;6.55;;;;;;;;;;5033038;28;20271;-69
2022/02/22 01:44:12;;;;;;;48.10;6.97;;;;;;;;;;5033479;28;20056;-70
2022/02/22 01:46:38;;;;;;;52.17;6.90;;;;;;;;;;5032963;28;20022;-69
2022/02/22 01:49:03;;;;;;;54.42;6.88;;;;;;;;;;5032039;28;20385;-70
2022/02/22 01:51:29;;;;;;;48.13;6.65;;;;;;;;;;5031885;28;20502;-70
2022/02/22 01:53:54;;;;;;;42.90;5.85;;;;;;;;;;5031910;28;20478;-69
2022/02/22 01:56:20;;;;;;;37.20;6.73;;;;;;;;;;5031767;28;20033;-70
2022/02/22 01:58:46;;;;;;;44.65;5.75;;;;;;;;;;5032050;28;20264;-70
2022/02/22 02:01:11;;;;;;;33.40;5.28;;;;;;;;;;5032672;28;20029;-70
2022/02/22 02:03:36;;;;;;;40.78;5.88;;;;;;;;;;5032638;28;20489;-70
2022/02/22 02:06:02;;;;;;;44.70;6.95;;;;;;;;;;5031699;28;20061;-70
2022/02/22 02:08:27;;;;;;;62.90;5.50;;;;;;;;;;5032182;28;20152;-69
2022/02/22 02:10:52;;;;;;;35.22;5.85;;;;;;;;;;5031377;28;20025;-71
2022/02/22 02:13:17;;;;;;;54.95;7.65;;;;;;;;;;5032064;28;20114;-69
2022/02/22 02:15:43;;;;;;;43.75;6.80;;;;;;;;;;5032360;28;20021;-70
2022/02/22 02:18:08;;;;;;;43.70;6.60;;;;;;;;;;5032356;28;20049;-70
2022/02/22 02:20:33;;;;;;;53.97;8.02;;;;;;;;;;5032020;28;20021;-70
2022/02/22 02:22:58;;;;;;;61.10;9.23;;;;;;;;;;5032094;28;20034;-70
2022/02/22 02:25:23;;;;;;;37.88;5.50;;;;;;;;;;5026354;28;20093;-70
2022/02/22 02:27:49;;;;;;;48.25;5.53;;;;;;;;;;5031756;28;20103;-70
2022/02/22 02:30:15;;;;;;;54.50;6.57;;;;;;;;;;5031331;28;20072;-70
2022/02/22 02:32:40;;;;;;;39.45;5.60;;;;;;;;;;5031671;28;20017;-70
2022/02/22 02:35:06;;;;;;;49.80;5.55;;;;;;;;;;5031661;28;20609;-70
2022/02/22 02:37:35;;;;;;;45.58;5.60;;;;;;;;;;5031710;28;20114;-70
2022/02/22 02:40:01;;;;;;;52.53;6.22;;;;;;;;;;5031742;28;20018;-70
2022/02/22 02:42:27;;;;;;;46.05;6.60;;;;;;;;;;5031166;28;20024;-70
2022/02/22 02:44:52;;;;;;;54.87;6.13;;;;;;;;;;5031396;28;20018;-69
2022/02/22 02:47:17;;;;;;;53.60;6.63;;;;;;;;;;5031352;28;20326;-70
2022/02/22 02:49:43;;;;;;;54.92;5.75;;;;;;;;;;5030895;28;20021;-70
2022/02/22 02:52:08;;;;;;;56.22;7.90;;;;;;;;;;5031466;28;20018;-70
2022/02/22 02:54:33;;;;;;;35.95;6.00;;;;;;;;;;5031979;28;20022;-70
2022/02/22 02:56:59;;;;;;;38.08;7.10;;;;;;;;;;5030781;28;20033;-70
2022/02/22 02:59:24;;;;;;;47.53;6.15;;;;;;;;;;5030033;28;20020;-71
2022/02/22 03:01:49;;;;;;;51.83;6.38;;;;;;;;;;5030424;28;20022;-70
2022/02/22 03:04:16;;;;;;;31.13;5.68;;;;;;;;;;5030772;28;20034;-70
2022/02/22 03:06:42;;;;;;;47.17;5.97;;;;;;;;;;5031661;28;20390;-69
2022/02/22 03:09:07;;;;;;;39.75;5.00;;;;;;;;;;5030633;28;20029;-70
2022/02/22 03:11:32;;;;;;;39.78;6.25;;;;;;;;;;5031558;28;20021;-70
2022/02/22 03:13:57;;;;;;;53.05;6.22;;;;;;;;;;5030876;28;20496;-70
2022/02/22 03:16:23;;;;;;;59.50;7.55;;;;;;;;;;5031057;28;20025;-70
2022/02/22 03:18:49;;;;;;;61.40;8.18;;;;;;;;;;5030523;28;20031;-70
2022/02/22 03:21:14;;;;;;;60.85;7.60;;;;;;;;;;5030327;28;20029;-70
2022/02/22 03:23:39;;;;;;;66.70;8.15;;;;;;;;;;5030912;28;20017;-70
2022/02/22 03:26:04;;;;;;;51.90;6.35;;;;;;;;;;5030653;28;20462;-70
2022/02/22 03:28:31;;;;;;;46.47;6.93;;;;;;;;;;5030445;28;20040;-72
2022/02/22 03:30:57;;;;;;;53.75;6.20;;;;;;;;;;5030528;28;21157;-72
2022/02/22 03:33:22;;;;;;;48.95;6.00;;;;;;;;;;5030100;28;20086;-72
2022/02/22 03:35:48;;;;;;;53.65;5.05;;;;;;;;;;5028708;28;20092;-71
2022/02/22 03:38:13;;;;;;;56.50;6.07;;;;;;;;;;5030034;28;20033;-71
2022/02/22 03:40:38;;;;;;;55.70;6.70;;;;;;;;;;5030147;28;20090;-72
2022/02/22 03:43:04;;;;;;;41.33;6.20;;;;;;;;;;5030327;28;20462;-69
2022/02/22 03:45:30;;;;;;;42.60;7.53;;;;;;;;;;5030588;28;20542;-71
2022/02/22 03:47:55;;;;;;;62.42;9.15;;;;;;;;;;5029562;28;20037;-72
2022/02/22 03:50:21;;;;;;;51.05;6.40;;;;;;;;;;5030493;28;20417;-72
2022/02/22 03:52:46;;;;;;;55.15;7.55;;;;;;;;;;5030239;28;20056;-70
2022/02/22 03:55:11;;;;;;;65.47;9.77;;;;;;;;;;5030467;28;20541;-71
2022/02/22 03:57:37;;;;;;;45.35;6.43;;;;;;;;;;5030411;28;20025;-71
2022/02/22 04:00:04;;;;;;;59.55;7.57;;;;;;;;;;5030180;28;20071;-72
2022/02/22 04:02:30;;;;;;;60.92;6.80;;;;;;;;;;5017929;28;20033;-71
2022/02/22 04:04:55;;;;;;;50.88;6.47;;;;;;;;;;5030831;28;20022;-72
2022/02/22 04:07:20;;;;;;;64.85;7.70;;;;;;;;;;5029859;28;20401;-72
2022/02/22 04:09:46;;;;;;;48.73;6.73;;;;;;;;;;5029956;28;20036;-71
2022/02/22 04:12:12;;;;;;;52.13;5.63;;;;;;;;;;5029648;28;20295;-72
2022/02/22 04:14:38;;;;;;;55.45;6.15;;;;;;;;;;5028650;28;20498;-72
2022/02/22 04:17:03;;;;;;;46.60;6.70;;;;;;;;;;5030105;28;20068;-72
2022/02/22 04:19:28;;;;;;;46.90;6.93;;;;;;;;;;5029954;28;20029;-71
2022/02/22 04:21:54;;;;;;;66.80;6.97;;;;;;;;;;5028522;28;20025;-72
2022/02/22 04:24:19;;;;;;;48.65;6.30;;;;;;;;;;5030287;28;20326;-71
2022/02/22 04:26:44;;;;;;;63.47;7.28;;;;;;;;;;5029769;28;20018;-72
2022/02/22 04:29:09;;;;;;;77.88;7.63;;;;;;;;;;5027925;28;20021;-71
2022/02/22 04:31:38;;;;;;;61.40;8.45;;;;;;;;;;5029084;28;20053;-72
2022/02/22 04:34:04;;;;;;;72.05;8.23;;;;;;;;;;5029051;28;20092;-70
2022/02/22 04:36:29;;;;;;;42.95;5.90;;;;;;;;;;5030251;28;20021;-71
2022/02/22 04:38:55;;;;;;;40.00;5.75;;;;;;;;;;5028701;28;20474;-71
2022/02/22 04:41:20;;;;;;;55.08;6.90;;;;;;;;;;5029680;28;20068;-71
2022/02/22 04:43:45;;;;;;;39.83;5.57;;;;;;;;;;5026813;28;20374;-72
2022/02/22 04:46:10;;;;;;;50.05;7.68;;;;;;;;;;5029664;28;20484;-71
2022/02/22 04:48:35;;;;;;;47.53;7.53;;;;;;;;;;5029332;28;20029;-72
2022/02/22 04:51:01;;;;;;;58.15;6.90;;;;;;;;;;5029083;28;20351;-71
2022/02/22 04:53:26;;;;;;;54.35;5.63;;;;;;;;;;5029865;28;20394;-72
2022/02/22 04:55:51;;;;;;;47.20;7.03;;;;;;;;;;5028782;28;20025;-71
2022/02/22 04:58:16;;;;;;;61.60;7.75;;;;;;;;;;5029194;28;20288;-70
2022/02/22 05:00:41;;;;;;;48.55;6.82;;;;;;;;;;5029288;28;20456;-71
2022/02/22 05:03:07;;;;;;;61.38;6.63;;;;;;;;;;5029483;28;20482;-70
2022/02/22 05:05:32;;;;;;;58.70;10.30;;;;;;;;;;5029754;28;20025;-70
2022/02/22 05:07:57;;;;;;;67.90;6.87;;;;;;;;;;5029580;28;20125;-70
2022/02/22 05:10:22;;;;;;;52.17;6.53;;;;;;;;;;5028904;28;20264;-70
2022/02/22 05:12:47;;;;;;;52.38;6.80;;;;;;;;;;5029146;28;20291;-70
2022/02/22 05:15:12;;;;;;;52.00;6.57;;;;;;;;;;5028842;28;20064;-71
2022/02/22 05:17:38;;;;;;;52.35;8.77;;;;;;;;;;5027401;28;20041;-70
2022/02/22 05:20:07;;;;;;;57.67;9.73;;;;;;;;;;5023488;28;20421;-72
2022/02/22 05:22:42;;;;;;;48.42;5.55;;;;;;;;;;5029492;28;20075;-70
2022/02/22 05:25:08;;;;;;;56.10;7.95;;;;;;;;;;5028738;28;20048;-70
2022/02/22 05:27:33;;;;;;;56.20;8.18;;;;;;;;;;5028522;28;20037;-72
2022/02/22 05:29:58;;;;;;;63.10;6.57;;;;;;;;;;5029318;28;20036;-70
2022/02/22 05:32:24;;;;;;;60.27;8.43;;;;;;;;;;5026628;28;20308;-71
2022/02/22 05:34:49;;;;;;;66.50;8.70;;;;;;;;;;5029557;28;20272;-70
2022/02/22 05:37:14;;;;;;;46.55;7.00;;;;;;;;;;5028293;28;20144;-71
2022/02/22 05:39:39;;;;;;;58.83;7.93;;;;;;;;;;5028463;28;20369;-70
2022/02/22 05:42:05;;;;;;;51.90;6.47;;;;;;;;;;5029252;28;20079;-70
2022/02/22 05:44:30;;;;;;;44.05;5.18;;;;;;;;;;5026913;28;20478;-70
2022/02/22 05:46:55;;;;;;;55.00;6.53;;;;;;;;;;5029031;28;20025;-70
2022/02/22 05:49:25;;;;;;;49.72;7.03;;;;;;;;;;5028957;28;20038;-70
2022/02/22 05:51:50;;;;;;;42.28;6.85;;;;;;;;;;5028956;28;20028;-70
2022/02/22 05:54:15;;;;;;;52.30;7.23;;;;;;;;;;5027951;28;20041;-70
2022/02/22 05:56:40;;;;;;;79.27;7.47;;;;;;;;;;5029545;28;20364;-69
2022/02/22 05:59:06;;;;;;;38.88;5.28;;;;;;;;;;5018744;28;20269;-69
2022/02/22 06:01:33;;;;;;;52.25;7.63;;;;;;;;;;5032910;28;20017;-70
2022/02/22 06:03:58;;;;;;;50.47;6.28;;;;;;;;;;5032067;28;20025;-70
2022/02/22 06:06:24;;;;;;;43.72;6.35;;;;;;;;;;5028613;28;20017;-70
2022/02/22 06:08:49;;;;;;;45.97;6.00;;;;;;;;;;5030931;28;20542;-71
2022/02/22 06:11:15;;;;;;;43.97;6.85;;;;;;;;;;5030455;28;20292;-68
2022/02/22 06:13:40;;;;;;;51.22;5.78;;;;;;;;;;5026708;28;20417;-68
2022/02/22 06:16:05;;;;;;;47.77;6.47;;;;;;;;;;5036916;28;20033;-69
2022/02/22 06:18:30;;;;;;;68.68;8.43;;;;;;;;;;5030844;28;20260;-71
2022/02/22 06:20:56;;;;;;;52.25;6.40;;;;;;;;;;5036796;28;20389;-71
2022/02/22 06:23:21;;;;;;;45.95;7.78;;;;;;;;;;5043303;28;20033;-69
2022/02/22 06:25:46;;;;;;;50.35;5.85;;;;;;;;;;5030923;28;20068;-68
2022/02/22 06:28:12;;;;;;;59.17;7.20;;;;;;;;;;5031117;28;20031;-69
2022/02/22 06:30:37;;;;;;;49.60;6.50;;;;;;;;;;5030962;28;20498;-71
2022/02/22 06:33:02;;;;;;;38.37;5.60;;;;;;;;;;5029366;28;20463;-68
2022/02/22 06:35:28;;;;;;;57.70;7.53;;;;;;;;;;5028578;28;20326;-72
2022/02/22 06:37:53;;;;;;;48.92;7.75;;;;;;;;;;5030551;28;20112;-69
2022/02/22 06:40:18;;;;;;;65.60;8.75;;;;;;;;;;5030132;28;20393;-70
2022/02/22 06:42:43;;;;;;;67.65;8.07;;;;;;;;;;5029007;28;20021;-69
2022/02/22 06:45:09;;;;;;;71.28;9.98;;;;;;;;;;5029286;28;20057;-72
2022/02/22 06:47:41;;;;;;;56.90;8.35;;;;;;;;;;5030307;28;20078;-71
2022/02/22 06:50:07;;;;;;;66.70;8.35;;;;;;;;;;5029052;28;20029;-72
2022/02/22 06:52:33;;;;;;;47.13;7.22;;;;;;;;;;5029203;28;20039;-72
2022/02/22 06:54:58;;;;;;;60.38;8.43;;;;;;;;;;5025208;28;20025;-71
2022/02/22 06:57:23;;;;;;;49.67;10.47;;;;;;;;;;5026762;28;20033;-71
2022/02/22 06:59:48;;;;;;;52.17;7.78;;;;;;;;;;5024850;28;20287;-71
2022/02/22 07:02:13;;;;;;;42.40;8.35;;;;;;;;;;5024653;28;20052;-70
2022/02/22 07:04:38;;;;;;;50.43;8.37;;;;;;;;;;5023412;28;20099;-71
2022/02/22 07:07:06;;;;;;;48.45;7.60;;;;;;;;;;5026240;28;20495;-71
2022/02/22 07:09:32;;;;;;;59.05;7.57;;;;;;;;;;5024458;28;20140;-71
2022/02/22 07:11:57;;;;;;;48.13;7.65;;;;;;;;;;5031565;28;20077;-73
2022/02/22 07:14:22;;;;;;;47.07;7.03;;;;;;;;;;5030227;28;20033;-69
2022/02/22 07:16:47;;;;;;;48.67;6.30;;;;;;;;;;5030847;28;20284;-70
2022/02/22 07:19:12;;;;;;;51.55;7.53;;;;;;;;;;5030287;28;20272;-69
2022/02/22 07:21:37;;;;;;;51.10;8.90;;;;;;;;;;5031692;28;20026;-71
2022/02/22 07:24:03;;;;;;;33.15;5.28;;;;;;;;;;5024599;28;20022;-67
2022/02/22 07:26:28;;;;;;;39.17;5.93;;;;;;;;;;5030812;28;20484;-70
2022/02/22 07:28:53;;;;;;;49.22;6.32;;;;;;;;;;5030918;28;20018;-69
2022/02/22 07:31:18;;;;;;;33.10;5.28;;;;;;;;;;5029284;28;20030;-68
2022/02/22 07:33:44;;;;;;;35.20;5.40;;;;;;;;;;5029881;28;20033;-70
2022/02/22 07:36:10;;;;;;;40.33;5.53;;;;;;;;;;5028167;28;20548;-67
2022/02/22 07:38:35;;;;;;;48.90;6.30;;;;;;;;;;5028982;28;20029;-70
2022/02/22 07:41:00;;;;;;;64.05;6.63;;;;;;;;;;5031046;28;20382;-69
2022/02/22 07:43:26;;;;;;;27.83;3.42;;;;;;;;;;5029284;28;20024;-67
2022/02/22 07:45:51;;;;;;;28.70;5.20;;;;;;;;;;5035693;28;20048;-69
2022/02/22 07:48:16;;;;;;;32.78;5.93;;;;;;;;;;5029756;28;20029;-69
2022/02/22 07:50:41;;;;;;;46.15;6.65;;;;;;;;;;5031143;28;20028;-69
2022/02/22 07:53:07;;;;;;;44.40;7.13;;;;;;;;;;5029218;28;20141;-72
2022/02/22 07:55:32;;;;;;;40.63;5.20;;;;;;;;;;5029363;28;20029;-72
2022/02/22 07:57:57;;;;;;;35.28;4.85;;;;;;;;;;5030088;28;20052;-67
2022/02/22 08:00:22;;;;;;;36.38;4.18;;;;;;;;;;5023159;28;20028;-72
2022/02/22 08:02:47;;;;;;;25.05;4.55;;;;;;;;;;5030257;28;20099;-67
2022/02/22 08:05:13;;;;;;;50.22;7.15;;;;;;;;;;5026995;28;20029;-72
2022/02/22 08:07:38;;;;;;;16.23;3.83;;;;;;;;;;5030436;28;20696;-67
2022/02/22 08:10:05;;;;;;;26.75;4.13;;;;;;;;;;5028034;28;20431;-70
2022/02/22 08:12:30;;;;;;;41.60;5.50;;;;;;;;;;5030452;28;20496;-68
2022/02/22 08:14:55;;;;;;;35.83;4.43;;;;;;;;;;5029827;28;20049;-70
2022/02/22 08:17:20;;;;;;;29.20;7.03;;;;;;;;;;5030238;28;20296;-67
2022/02/22 08:19:45;;;;;;;19.92;3.85;;;;;;;;;;5030641;28;20569;-69
2022/02/22 08:22:11;;;;;;;37.10;6.38;;;;;;;;;;5027509;28;20725;-70
2022/02/22 08:24:36;;;;;;;14.43;3.47;;;;;;;;;;5028918;28;20014;-69
2022/02/22 08:27:03;;;;;;;34.38;5.05;;;;;;;;;;5024991;28;20152;-68
2022/02/22 08:29:28;;;;;;;23.02;4.60;;;;;;;;;;5025390;28;20112;-73
2022/02/22 08:31:53;;;;;;;42.42;5.30;;;;;;;;;;5027965;28;20124;-69
2022/02/22 08:34:19;;;;;;;38.88;4.80;;;;;;;;;;5029675;28;20045;-69
2022/02/22 08:36:45;;;;;;;36.05;4.82;;;;;;;;;;5029504;28;20028;-69
2022/02/22 08:39:10;;;;;;;25.17;3.15;;;;;;;;;;5029910;28;20021;-70
2022/02/22 08:41:35;;;;;;;31.60;4.07;;;;;;;;;;5029667;28;20047;-69
2022/02/22 08:44:04;;;;;;;32.60;4.93;;;;;;;;;;5028924;28;20390;-72
2022/02/22 08:46:29;;;;;;;38.55;5.68;;;;;;;;;;5030131;28;20540;-69
2022/02/22 08:48:54;;;;;;;33.72;4.65;;;;;;;;;;5029990;28;20025;-70
2022/02/22 08:51:20;;;;;;;38.28;4.88;;;;;;;;;;5029852;28;20021;-69
2022/02/22 08:53:45;;;;;;;33.53;5.00;;;;;;;;;;5029450;28;20461;-69
2022/02/22 08:56:10;;;;;;;29.90;4.57;;;;;;;;;;5019423;28;20038;-68
2022/02/22 08:58:35;;;;;;;41.45;5.75;;;;;;;;;;5020754;28;20025;-69
2022/02/22 09:01:01;;;;;;;48.83;6.03;;;;;;;;;;5027684;28;20014;-69
2022/02/22 09:03:26;;;;;;;22.38;4.25;;;;;;;;;;5019859;28;20061;-69
2022/02/22 09:05:52;;;;;;;20.17;3.45;;;;;;;;;;5029836;28;20029;-70
2022/02/22 09:08:17;;;;;;;16.08;3.97;;;;;;;;;;5030033;28;20389;-68
2022/02/22 09:10:45;;;;;;;19.55;3.70;;;;;;;;;;5029633;28;20297;-69
2022/02/22 09:13:10;;;;;;;34.25;4.50;;;;;;;;;;5029876;28;20033;-71
2022/02/22 09:15:36;;;;;;;26.83;5.43;;;;;;;;;;5029757;28;20622;-69
2022/02/22 09:18:02;;;;;;;42.67;5.43;;;;;;;;;;5029447;28;20068;-70
2022/02/22 09:20:27;;;;;;;18.83;4.70;;;;;;;;;;5029719;28;20526;-69
2022/02/22 09:22:53;;;;;;;27.25;4.43;;;;;;;;;;5029660;28;20156;-72
2022/02/22 09:25:19;;;;;;;29.30;5.10;;;;;;;;;;5029526;28;20018;-69
2022/02/22 09:27:44;;;;;;;35.05;6.13;;;;;;;;;;5030399;28;20490;-71
2022/02/22 09:30:10;;;;;;;23.33;3.72;;;;;;;;;;5022269;28;20112;-71
2022/02/22 09:32:35;;;;;;;45.20;6.13;;;;;;;;;;5027966;28;20017;-72
2022/02/22 09:35:00;;;;;;;29.35;6.75;;;;;;;;;;5030393;28;20113;-67
2022/02/22 09:37:26;;;;;;;10.87;2.70;;;;;;;;;;5033300;28;20025;-71
2022/02/22 09:39:51;;;;;;;11.60;2.42;;;;;;;;;;5033670;28;20617;-69
2022/02/22 09:42:16;;;;;;;25.27;4.82;;;;;;;;;;5033216;28;20037;-71
2022/02/22 09:44:41;;;;;;;25.42;5.88;;;;;;;;;;5033161;28;20135;-67
2022/02/22 09:47:07;;;;;;;21.92;6.13;;;;;;;;;;5033248;28;20405;-70
2022/02/22 09:49:33;;;;;;;23.42;6.15;;;;;;;;;;5032546;28;20087;-72
2022/02/22 09:51:59;;;;;;;27.23;5.55;;;;;;;;;;5033357;28;20436;-68
2022/02/22 09:54:24;;;;;;;24.58;5.20;;;;;;;;;;5031515;28;20029;-68
2022/02/22 09:56:50;;;;;;;21.92;5.10;;;;;;;;;;5033221;28;20029;-69
2022/02/22 09:59:15;;;;;;;18.10;3.50;;;;;;;;;;5033060;28;20100;-71
2022/02/22 10:01:41;;;;;;;27.05;6.25;;;;;;;;;;5032761;28;20021;-69
2022/02/22 10:04:07;;;;;;;36.60;6.20;;;;;;;;;;5031938;28;20385;-68
2022/02/22 10:06:32;;;;;;;13.63;3.90;;;;;;;;;;5032807;28;20021;-69
2022/02/22 10:08:58;;;;;;;19.58;5.25;;;;;;;;;;5032666;28;20043;-70
2022/02/22 10:11:23;;;;;;;17.83;4.32;;;;;;;;;;5032678;28;20025;-69
2022/02/22 10:13:48;;;;;;;18.38;4.22;;;;;;;;;;5033148;28;20474;-69
2022/02/22 10:16:14;;;;;;;20.52;4.72;;;;;;;;;;5031070;28;20421;-71
2022/02/22 10:18:50;;;;;;;19.60;4.47;;;;;;;;;;5032525;28;20017;-68
2022/02/22 10:21:15;;;;;;;26.45;5.05;;;;;;;;;;5031378;28;20438;-68
2022/02/22 10:23:40;;;;;;;18.50;3.97;;;;;;;;;;5033019;28;20124;-69
2022/02/22 10:26:06;;;;;;;17.05;4.32;;;;;;;;;;5031034;28;20021;-69
2022/02/22 10:28:31;;;;;;;16.67;3.63;;;;;;;;;;5032795;28;20032;-69
2022/02/22 10:30:56;;;;;;;8.85;2.10;;;;;;;;;;5032425;28;20063;-71
2022/02/22 10:33:23;;;;;;;7.00;2.45;;;;;;;;;;5032110;28;20029;-68
2022/02/22 10:35:53;;;;;;;25.02;3.72;;;;;;;;;;5031764;28;20043;-70
2022/02/22 10:38:20;;;;;;;3.70;1.55;;;;;;;;;;5032560;28;20029;-67
2022/02/22 10:40:55;;;;;;;19.45;3.92;;;;;;;;;;5032014;28;20466;-68
2022/02/22 10:43:28;;;;;;;11.25;2.85;;;;;;;;;;5030452;28;20014;-71
2022/02/22 10:45:56;;;;;;;18.35;3.10;;;;;;;;;;5029205;28;20017;-69
2022/02/22 10:48:33;;;;;;;16.23;3.20;;;;;;;;;;5031660;28;20059;-71
2022/02/22 10:51:00;;;;;;;25.70;3.75;;;;;;;;;;5026737;28;20680;-71
2022/02/22 10:53:26;;;;;;;8.55;1.38;;;;;;;;;;5031706;28;20120;-71
2022/02/22 10:55:52;;;;;;;9.18;2.17;;;;;;;;;;5031804;28;20022;-71
2022/02/22 10:58:18;;;;;;;5.93;1.77;;;;;;;;;;5031186;28;20022;-69
2022/02/22 11:00:43;;;;;;;6.65;2.17;;;;;;;;;;5031261;28;20022;-69
2022/02/22 11:03:09;;;;;;;17.38;3.20;;;;;;;;;;5024785;28;20569;-70
2022/02/22 11:05:35;;;;;;;13.57;3.00;;;;;;;;;;5026172;28;20021;-69
2022/02/22 11:08:00;;;;;;;16.85;2.78;;;;;;;;;;5031761;28;20071;-70
2022/02/22 11:10:28;;;;;;;18.67;4.10;;;;;;;;;;5031406;28;20017;-70
2022/02/22 11:12:54;;;;;;;13.40;2.25;;;;;;;;;;5029876;28;20021;-70
2022/02/22 11:15:31;;;;;;;15.98;3.20;;;;;;;;;;5031344;28;20052;-70
2022/02/22 11:17:57;;;;;;;10.32;2.85;;;;;;;;;;5031742;28;20029;-70
2022/02/22 11:20:29;;;;;;;19.80;3.97;;;;;;;;;;5030924;28;20022;-70
2022/02/22 11:22:59;;;;;;;19.50;3.25;;;;;;;;;;5030511;28;20021;-69
2022/02/22 11:25:29;;;;;;;12.73;2.83;;;;;;;;;;5014567;28;20021;-70
2022/02/22 11:28:00;;;;;;;9.70;2.58;;;;;;;;;;5033436;28;20648;-69
2022/02/22 11:30:28;;;;;;;13.57;2.80;;;;;;;;;;5043593;28;20070;-69
2022/02/22 11:32:55;;;;;;;25.58;3.45;;;;;;;;;;5031031;28;20025;-70
2022/02/22 11:35:21;;;;;;;29.80;3.75;;;;;;;;;;5031477;28;20100;-71
2022/02/22 11:37:46;;;;;;;16.27;2.78;;;;;;;;;;5031207;28;20024;-72
2022/02/22 11:40:25;;;;;;;30.08;3.50;;;;;;;;;;5030486;28;20108;-70
2022/02/22 11:42:51;;;;;;;29.20;3.78;;;;;;;;;;5028843;28;20028;-70
2022/02/22 11:45:24;;;;;;;23.70;4.50;;;;;;;;;;5030833;28;20026;-70
2022/02/22 11:48:10;;;;;;;22.73;3.72;;;;;;;;;;5025457;28;20397;-70
2022/02/22 11:50:39;;;;;;;25.42;4.32;;;;;;;;;;5030206;28;20026;-71
2022/02/22 11:53:07;;;;;;;22.70;4.13;;;;;;;;;;5030509;28;20024;-70
2022/02/22 11:55:35;;;;;;;13.98;3.50;;;;;;;;;;5030145;28;20083;-69
2022/02/22 11:58:01;;;;;;;27.38;3.50;;;;;;;;;;5029425;28;20116;-69
2022/02/22 12:00:40;;;;;;;17.97;3.90;;;;;;;;;;5029917;28;20498;-69
2022/02/22 12:03:09;;;;;;;29.17;5.45;;;;;;;;;;5026623;28;20783;-70
2022/02/22 12:05:41;;;;;;;21.97;4.00;;;;;;;;;;5030716;28;20022;-70
2022/02/22 12:08:07;;;;;;;28.73;4.38;;;;;;;;;;5028663;28;20104;-70
2022/02/22 12:10:34;;;;;;;32.05;3.95;;;;;;;;;;5030305;28;20053;-70
2022/02/22 12:13:05;;;;;;;28.65;4.80;;;;;;;;;;5028440;28;20018;-70
2022/02/22 12:15:31;;;;;;;18.63;3.50;;;;;;;;;;5030818;28;20014;-70
2022/02/22 12:17:56;;;;;;;29.77;2.97;;;;;;;;;;5029837;28;20020;-70
2022/02/22 12:20:24;;;;;;;33.88;5.20;;;;;;;;;;5030581;28;20687;-69
2022/02/22 12:22:50;;;;;;;25.98;3.45;;;;;;;;;;5018327;28;20018;-69
2022/02/22 12:25:15;;;;;;;34.45;4.72;;;;;;;;;;5030701;28;20020;-70
2022/02/22 12:27:40;;;;;;;16.88;3.20;;;;;;;;;;5030427;28;20029;-70
2022/02/22 12:30:05;;;;;;;22.90;3.67;;;;;;;;;;5030124;28;20021;-70
2022/02/22 12:32:35;;;;;;;18.58;3.50;;;;;;;;;;5027758;28;20371;-70
2022/02/22 12:35:06;;;;;;;21.50;4.25;;;;;;;;;;5028909;28;20025;-70
2022/02/22 12:37:39;;;;;;;9.00;1.48;;;;;;;;;;5030345;28;20060;-70
2022/02/22 12:40:10;;;;;;;17.67;2.50;;;;;;;;;;5029929;28;20033;-70
2022/02/22 12:42:35;;;;;;;19.15;3.30;;;;;;;;;;5028970;28;20052;-70
2022/02/22 12:45:10;;;;;;;12.77;2.03;;;;;;;;;;5029939;28;20057;-69
2022/02/22 12:47:36;;;;;;;14.35;3.33;;;;;;;;;;5030370;28;20033;-70
2022/02/22 12:50:02;;;;;;;30.65;4.40;;;;;;;;;;5029722;28;20021;-71
2022/02/22 12:52:27;;;;;;;29.52;4.55;;;;;;;;;;5038093;28;20103;-70
2022/02/22 12:55:02;;;;;;;16.30;4.50;;;;;;;;;;5044817;28;20478;-71
2022/02/22 12:57:27;;;;;;;17.58;3.55;;;;;;;;;;5027448;28;20033;-71
2022/02/22 13:00:00;;;;;;;28.50;4.60;;;;;;;;;;5028497;28;20013;-70
2022/02/22 13:02:26;;;;;;;36.58;3.58;;;;;;;;;;5029915;28;20264;-70
2022/02/22 13:04:51;;;;;;;29.92;4.00;;;;;;;;;;5029763;28;20020;-70
2022/02/22 13:07:18;;;;;;;28.63;5.47;;;;;;;;;;5029386;28;20021;-70
2022/02/22 13:09:43;;;;;;;23.70;4.57;;;;;;;;;;5030698;28;20021;-70
2022/02/22 13:12:09;;;;;;;33.33;5.07;;;;;;;;;;5022790;28;20029;-70
2022/02/22 13:14:38;;;;;;;27.38;4.18;;;;;;;;;;5033344;28;20026;-70
2022/02/22 13:17:03;;;;;;;5.68;1.45;;;;;;;;;;5032832;28;20481;-70
2022/02/22 13:19:29;;;;;;;22.17;2.88;;;;;;;;;;5026047;28;20112;-70
2022/02/22 13:21:55;;;;;;;22.65;4.45;;;;;;;;;;5033510;28;20052;-71
2022/02/22 13:24:20;;;;;;;23.67;3.70;;;;;;;;;;5032866;28;20127;-70
2022/02/22 13:26:45;;;;;;;14.57;3.27;;;;;;;;;;5027547;28;20591;-71
2022/02/22 13:29:11;;;;;;;8.18;1.33;;;;;;;;;;5031825;28;20280;-70
2022/02/22 13:31:37;;;;;;;12.45;2.63;;;;;;;;;;5032646;28;20025;-71
2022/02/22 13:34:06;;;;;;;22.33;2.88;;;;;;;;;;5031692;28;21904;-70
2022/02/22 13:36:32;;;;;;;19.38;2.90;;;;;;;;;;5033354;28;20025;-69
2022/02/22 13:39:04;;;;;;;22.92;2.90;;;;;;;;;;5033464;28;20467;-71
2022/02/22 13:41:36;;;;;;;9.13;1.35;;;;;;;;;;5033188;28;20029;-70
2022/02/22 13:44:02;;;;;;;26.77;3.10;;;;;;;;;;5032520;28;20021;-70
2022/02/22 13:46:29;;;;;;;16.45;3.42;;;;;;;;;;5031592;28;20029;-70
2022/02/22 13:48:59;;;;;;;17.50;3.65;;;;;;;;;;5032461;28;20469;-70
2022/02/22 13:51:24;;;;;;;;;;;;;;;;;;5021844;28;20165;-70
2022/02/22 13:53:53;;;;;;;31.85;3.90;;;;;;;;;;5033164;28;19953;-71
2022/02/22 13:56:23;;;;;;;20.75;3.08;;;;;;;;;;5032321;28;20493;-69
2022/02/22 13:58:49;;;;;;;9.32;2.25;;;;;;;;;;5032745;28;20374;-70
2022/02/22 14:01:14;;;;;;;10.20;2.63;;;;;;;;;;5032365;28;20021;-70
2022/02/22 14:03:41;;;;;;;12.18;2.38;;;;;;;;;;5032572;28;20079;-70
2022/02/22 14:06:06;;;;;;;16.50;3.50;;;;;;;;;;5032194;28;20018;-70
2022/02/22 14:08:31;;;;;;;13.23;2.60;;;;;;;;;;5017299;28;20048;-70
2022/02/22 14:10:57;;;;;;;8.98;2.17;;;;;;;;;;5032766;28;20060;-70
2022/02/22 14:13:23;;;;;;;17.15;3.35;;;;;;;;;;5031859;28;20022;-72
2022/02/22 14:15:48;;;;;;;18.13;3.00;;;;;;;;;;5032669;28;20672;-70
2022/02/22 14:18:13;;;;;;;6.38;1.35;;;;;;;;;;5032901;28;20097;-70
2022/02/22 14:20:39;;;;;;;25.52;4.55;;;;;;;;;;5031883;28;20504;-71
2022/02/22 14:23:05;;;;;;;12.15;2.83;;;;;;;;;;5032737;28;20108;-70
2022/02/22 14:25:34;;;;;;;18.00;2.97;;;;;;;;;;5032803;28;20163;-70